createdAt,value
2019-04-14T00:02:11.675Z,3.10
2019-04-14T00:04:44.463Z,3.00
2019-04-14T00:07:14.582Z,3.10
2019-04-14T00:09:45.266Z,3.10
2019-04-14T00:12:14.839Z,3.10
2019-04-14T00:14:44.720Z,3.20
2019-04-14T00:17:15.168Z,3.30
2019-04-14T00:19:45.660Z,3.10
2019-04-14T00:22:16.258Z,3.10
2019-04-14T00:24:46.718Z,3.10
2019-04-14T00:27:17.157Z,3.00
2019-04-14T00:29:47.866Z,3.10
2019-04-14T00:32:18.316Z,3.10
2019-04-14T00:35:16.713Z,3.30
2019-04-14T00:38:21.792Z,3.30
2019-04-14T00:41:00.638Z,3.10
2019-04-14T00:43:59.225Z,3.20
2019-04-14T00:46:37.145Z,3.10
2019-04-14T00:49:07.078Z,3.10
2019-04-14T00:51:39.159Z,2.80
2019-04-14T00:54:08.740Z,2.80
2019-04-14T00:56:39.017Z,2.70
2019-04-14T00:59:09.287Z,2.80
2019-04-14T01:01:39.443Z,3.00
2019-04-14T01:04:09.784Z,3.10
2019-04-14T01:06:40.369Z,3.10
2019-04-14T01:09:12.908Z,2.80
2019-04-14T01:11:42.656Z,2.90
2019-04-14T01:14:12.618Z,3.00
2019-04-14T01:16:43.001Z,2.90
2019-04-14T01:19:13.340Z,2.90
2019-04-14T01:21:43.617Z,3.00
2019-04-14T01:24:14.245Z,3.00
2019-04-14T01:26:44.220Z,3.10
2019-04-14T01:29:14.412Z,3.10
2019-04-14T01:31:44.637Z,2.90
2019-04-14T01:34:15.177Z,2.90
2019-04-14T01:36:45.318Z,2.80
2019-04-14T01:39:15.475Z,2.80
2019-04-14T01:41:45.652Z,2.90
2019-04-14T01:44:15.623Z,2.80
2019-04-14T01:46:45.606Z,2.90
2019-04-14T01:49:15.743Z,2.80
2019-04-14T01:52:03.594Z,2.70
2019-04-14T01:54:58.357Z,2.70
2019-04-14T01:57:56.846Z,2.60
2019-04-14T02:00:51.336Z,2.60
2019-04-14T02:03:21.710Z,2.60
2019-04-14T02:05:51.760Z,2.50
2019-04-14T02:08:22.013Z,2.50
2019-04-14T02:10:52.067Z,2.50
2019-04-14T02:13:22.537Z,2.50
2019-04-14T02:15:52.873Z,2.50
2019-04-14T02:18:22.906Z,2.30
2019-04-14T02:20:53.490Z,2.40
2019-04-14T02:23:23.613Z,2.40
2019-04-14T02:25:53.627Z,2.40
2019-04-14T02:28:24.254Z,2.40
2019-04-14T02:31:08.074Z,2.40
2019-04-14T02:33:50.392Z,2.40
2019-04-14T02:36:32.584Z,2.40
2019-04-14T02:41:28.422Z,2.30
2019-04-14T02:44:15.791Z,2.20
2019-04-14T02:46:34.520Z,2.30
2019-04-14T02:48:58.397Z,2.30
2019-04-14T02:51:33.515Z,2.30
2019-04-14T03:01:38.510Z,2.20
2019-04-14T03:04:09.370Z,2.10
2019-04-14T03:06:33.330Z,2.10
2019-04-14T03:09:20.476Z,2.00
2019-04-14T03:11:38.043Z,2.00
2019-04-14T03:17:14.650Z,1.90
2019-04-14T03:22:36.948Z,1.80
2019-04-14T03:25:05.771Z,1.80
2019-04-14T03:31:04.079Z,1.80
2019-04-14T03:36:11.104Z,1.80
2019-04-14T03:40:45.809Z,1.60
2019-04-14T03:43:19.635Z,1.70
2019-04-14T03:46:03.794Z,1.60
2019-04-14T03:50:46.003Z,1.70
2019-04-14T03:53:22.131Z,1.60
2019-04-14T03:56:04.456Z,1.60
2019-04-14T03:58:31.405Z,1.60
2019-04-14T04:01:01.896Z,1.60
2019-04-14T04:03:32.433Z,1.60
2019-04-14T04:06:03.086Z,1.60
2019-04-14T04:08:33.400Z,1.60
2019-04-14T04:11:04.030Z,1.60
2019-04-14T04:13:34.520Z,1.70
2019-04-14T04:16:20.201Z,1.70
2019-04-14T04:18:57.900Z,1.70
2019-04-14T04:21:29.218Z,1.70
2019-04-14T04:24:12.779Z,1.80
2019-04-14T04:27:02.575Z,1.90
2019-04-14T04:29:52.689Z,1.80
2019-04-14T04:32:29.751Z,1.80
2019-04-14T04:35:17.521Z,1.90
2019-04-14T04:38:09.563Z,2.00
2019-04-14T04:40:39.718Z,2.00
2019-04-14T04:43:10.165Z,2.00
2019-04-14T04:45:40.807Z,2.00
2019-04-14T04:48:10.885Z,2.00
2019-04-14T04:50:41.050Z,2.00
2019-04-14T04:53:11.521Z,2.10
2019-04-14T04:55:41.674Z,2.10
2019-04-14T04:58:12.084Z,2.10
2019-04-14T05:00:41.762Z,2.10
2019-04-14T05:03:12.258Z,2.10
2019-04-14T05:06:11.371Z,2.10
2019-04-14T05:08:48.060Z,2.10
2019-04-14T05:11:25.818Z,2.20
2019-04-14T05:13:56.020Z,2.10
2019-04-14T05:16:25.982Z,2.10
2019-04-14T05:18:55.693Z,2.20
2019-04-14T05:21:25.601Z,2.30
2019-04-14T05:23:56.045Z,2.20
2019-04-14T05:26:26.543Z,2.30
2019-04-14T05:28:57.002Z,2.30
2019-04-14T05:31:29.019Z,2.30
2019-04-14T05:33:57.732Z,2.30
2019-04-14T05:36:28.120Z,2.30
2019-04-14T05:38:58.161Z,2.50
2019-04-14T05:41:28.678Z,2.50
2019-04-14T05:44:01.453Z,2.60
2019-04-14T05:46:29.886Z,2.60
2019-04-14T05:48:59.961Z,2.60
2019-04-14T05:51:30.516Z,2.60
2019-04-14T05:54:01.094Z,2.70
2019-04-14T05:56:31.655Z,2.70
2019-04-14T05:59:02.234Z,2.80
2019-04-14T06:01:31.848Z,2.90
2019-04-14T06:04:02.452Z,2.80
2019-04-14T06:06:31.993Z,2.70
2019-04-14T06:09:01.489Z,2.80
2019-04-14T06:11:31.002Z,2.90
2019-04-14T06:14:00.487Z,3.00
2019-04-14T06:16:30.050Z,2.90
2019-04-14T06:18:59.542Z,3.10
2019-04-14T06:21:29.162Z,3.10
2019-04-14T06:23:58.708Z,3.10
2019-04-14T06:26:28.236Z,3.10
2019-04-14T06:28:57.808Z,3.20
2019-04-14T06:31:52.285Z,3.30
2019-04-14T06:34:29.697Z,3.30
2019-04-14T06:37:20.402Z,3.40
2019-04-14T06:39:51.301Z,3.40
2019-04-14T06:42:20.846Z,3.40
2019-04-14T06:44:50.348Z,3.50
2019-04-14T06:47:19.855Z,3.60
2019-04-14T06:49:50.915Z,3.70
2019-04-14T06:52:20.472Z,3.60
2019-04-14T06:54:49.981Z,3.70
2019-04-14T06:57:19.494Z,3.70
2019-04-14T06:59:49.049Z,3.90
2019-04-14T07:02:18.558Z,3.80
2019-04-14T07:04:48.079Z,3.90
2019-04-14T07:07:17.559Z,3.90
2019-04-14T07:09:47.110Z,3.90
2019-04-14T07:12:16.740Z,4.00
2019-04-14T07:14:46.341Z,4.20
2019-04-14T07:17:15.882Z,4.20
2019-04-14T07:19:45.376Z,4.30
2019-04-14T07:22:14.966Z,4.30
2019-04-14T07:24:44.511Z,4.30
2019-04-14T07:27:14.042Z,4.30
2019-04-14T07:29:52.387Z,4.40
2019-04-14T07:32:35.783Z,4.20
2019-04-14T07:35:23.635Z,4.30
2019-04-14T07:38:27.487Z,4.40
2019-04-14T07:41:24.632Z,4.40
2019-04-14T07:44:16.082Z,4.50
2019-04-14T07:47:03.466Z,4.60
2019-04-14T07:49:50.765Z,4.70
2019-04-14T07:52:57.658Z,4.50
2019-04-14T07:55:57.934Z,4.50
2019-04-14T07:58:34.163Z,4.60
2019-04-14T08:01:19.580Z,4.40
2019-04-14T08:04:06.783Z,4.80
2019-04-14T08:06:38.424Z,4.80
2019-04-14T08:09:08.093Z,4.70
2019-04-14T08:11:37.579Z,4.80
2019-04-14T08:14:07.068Z,4.90
2019-04-14T08:16:36.626Z,5.00
2019-04-14T08:19:06.134Z,4.80
2019-04-14T08:21:35.642Z,4.80
2019-04-14T08:24:05.246Z,4.90
2019-04-14T08:26:34.782Z,4.80
2019-04-14T08:29:04.387Z,5.10
2019-04-14T08:31:33.910Z,5.10
2019-04-14T08:34:03.441Z,4.80
2019-04-14T08:36:33.342Z,5.00
2019-04-14T08:39:03.023Z,5.10
2019-04-14T08:41:39.318Z,5.00
2019-04-14T08:44:14.215Z,5.10
2019-04-14T08:47:11.085Z,5.20
2019-04-14T08:49:59.433Z,5.20
2019-04-14T08:52:34.211Z,5.10
2019-04-14T08:55:22.855Z,5.30
2019-04-14T08:58:14.303Z,5.40
2019-04-14T09:01:05.729Z,5.60
2019-04-14T09:04:09.594Z,5.80
2019-04-14T09:06:43.557Z,5.20
2019-04-14T09:09:36.022Z,5.70
2019-04-14T09:12:15.880Z,5.70
2019-04-14T09:14:55.927Z,5.60
2019-04-14T09:17:14.666Z,5.90
2019-04-14T09:19:44.257Z,5.90
2019-04-14T09:22:13.747Z,6.00
2019-04-14T09:24:43.310Z,6.00
2019-04-14T09:27:12.786Z,5.90
2019-04-14T09:29:42.272Z,6.00
2019-04-14T09:32:12.807Z,5.80
2019-04-14T09:34:42.380Z,6.00
2019-04-14T09:37:12.252Z,6.10
2019-04-14T09:39:41.808Z,6.00
2019-04-14T09:42:11.383Z,5.80
2019-04-14T09:44:40.900Z,5.60
2019-04-14T09:47:10.433Z,6.10
2019-04-14T09:49:39.955Z,5.80
2019-04-14T09:52:09.482Z,5.80
2019-04-14T09:54:39.032Z,5.80
2019-04-14T09:57:08.594Z,6.30
2019-04-14T09:59:38.153Z,6.10
2019-04-14T10:02:07.874Z,5.80
2019-04-14T10:04:37.389Z,5.60
2019-04-14T10:07:06.950Z,7.20
2019-04-14T10:09:36.453Z,7.30
2019-04-14T10:12:05.983Z,7.70
2019-04-14T10:14:35.509Z,7.60
2019-04-14T10:17:05.172Z,7.90
2019-04-14T10:19:34.682Z,7.20
2019-04-14T10:22:04.145Z,6.60
2019-04-14T10:24:33.673Z,6.40
2019-04-14T10:27:03.183Z,6.10
2019-04-14T10:29:32.767Z,5.90
2019-04-14T10:32:02.250Z,6.00
2019-04-14T10:34:31.810Z,5.90
2019-04-14T10:37:01.268Z,5.80
2019-04-14T10:39:30.811Z,5.40
2019-04-14T10:42:00.382Z,6.10
2019-04-14T10:44:29.887Z,6.40
2019-04-14T10:46:59.367Z,6.20
2019-04-14T10:49:28.957Z,5.80
2019-04-14T10:51:58.474Z,5.70
2019-04-14T10:54:28.031Z,5.70
2019-04-14T10:56:57.509Z,5.90
2019-04-14T10:59:27.010Z,5.60
2019-04-14T11:01:56.564Z,5.80
2019-04-14T11:04:26.066Z,5.90
2019-04-14T11:07:00.894Z,5.60
2019-04-14T11:09:30.398Z,5.70
2019-04-14T11:11:59.981Z,5.20
2019-04-14T11:14:29.451Z,5.60
2019-04-14T11:16:59.015Z,5.60
2019-04-14T11:19:28.563Z,5.80
2019-04-14T11:21:58.126Z,6.00
2019-04-14T11:24:27.620Z,6.10
2019-04-14T11:26:57.243Z,6.10
2019-04-14T11:29:26.731Z,6.00
2019-04-14T11:32:13.849Z,5.60
2019-04-14T11:34:55.310Z,5.10
2019-04-14T11:37:46.533Z,5.40
2019-04-14T11:40:18.759Z,5.20
2019-04-14T11:42:52.401Z,5.40
2019-04-14T11:45:19.674Z,5.30
2019-04-14T11:47:49.263Z,5.30
2019-04-14T11:50:18.807Z,5.30
2019-04-14T11:52:48.428Z,5.80
2019-04-14T11:55:18.004Z,5.90
2019-04-14T11:57:47.566Z,5.70
2019-04-14T12:00:34.620Z,5.30
2019-04-14T12:03:22.074Z,5.60
2019-04-14T12:06:16.702Z,5.30
2019-04-14T12:09:11.174Z,5.40
2019-04-14T12:11:40.706Z,5.00
2019-04-14T12:14:10.208Z,5.30
2019-04-14T12:16:39.904Z,5.30
2019-04-14T12:19:09.434Z,5.10
2019-04-14T12:21:38.976Z,5.20
2019-04-14T12:24:08.502Z,5.00
2019-04-14T12:26:37.996Z,5.20
2019-04-14T12:29:07.514Z,5.40
2019-04-14T12:31:37.519Z,5.70
2019-04-14T12:34:07.026Z,5.60
2019-04-14T12:36:36.483Z,5.70
2019-04-14T12:39:10.441Z,5.60
2019-04-14T12:41:44.871Z,5.70
2019-04-14T12:44:31.834Z,5.80
2019-04-14T12:47:25.428Z,5.50
2019-04-14T12:49:55.566Z,5.60
2019-04-14T12:52:26.503Z,5.60
2019-04-14T12:54:56.208Z,5.60
2019-04-14T12:57:46.646Z,5.60
2019-04-14T13:00:22.717Z,5.70
2019-04-14T13:02:53.114Z,5.80
2019-04-14T13:05:22.631Z,5.70
2019-04-14T13:07:52.116Z,5.40
2019-04-14T13:10:21.630Z,5.50
2019-04-14T13:12:51.132Z,5.60
2019-04-14T13:15:20.651Z,5.60
2019-04-14T13:17:50.228Z,5.50
2019-04-14T13:20:19.768Z,5.40
2019-04-14T13:22:49.275Z,5.50
2019-04-14T13:25:18.855Z,5.60
2019-04-14T13:27:50.023Z,6.00
2019-04-14T13:30:23.690Z,5.50
2019-04-14T13:32:53.214Z,5.80
2019-04-14T13:35:22.733Z,5.80
2019-04-14T13:37:52.200Z,5.70
2019-04-14T13:40:21.779Z,5.60
2019-04-14T13:42:51.275Z,5.70
2019-04-14T13:45:20.861Z,5.70
2019-04-14T13:47:50.344Z,5.80
2019-04-14T13:50:20.048Z,6.00
2019-04-14T13:52:52.348Z,6.00
2019-04-14T13:55:21.883Z,5.90
2019-04-14T13:57:51.473Z,6.00
2019-04-14T14:00:21.663Z,5.80
2019-04-14T14:02:51.361Z,5.90
2019-04-14T14:05:21.085Z,5.80
2019-04-14T14:07:50.793Z,5.90
2019-04-14T14:10:20.917Z,5.80
2019-04-14T14:13:15.394Z,5.90
2019-04-14T14:16:07.017Z,6.00
2019-04-14T14:18:44.116Z,6.30
2019-04-14T14:21:31.241Z,6.10
2019-04-14T14:24:13.755Z,6.00
2019-04-14T14:26:43.695Z,6.30
2019-04-14T14:29:13.271Z,6.30
2019-04-14T14:31:42.835Z,6.20
2019-04-14T14:34:12.440Z,6.10
2019-04-14T14:36:42.027Z,5.90
2019-04-14T14:39:11.564Z,6.10
2019-04-14T14:41:41.170Z,5.90
2019-04-14T14:44:11.249Z,6.10
2019-04-14T14:46:53.675Z,6.30
2019-04-14T14:49:38.470Z,6.20
2019-04-14T14:52:10.210Z,6.30
2019-04-14T14:54:39.787Z,6.40
2019-04-14T14:57:09.390Z,6.50
2019-04-14T14:59:38.947Z,6.30
2019-04-14T15:02:08.558Z,6.20
2019-04-14T15:04:38.106Z,6.20
2019-04-14T15:07:07.700Z,6.40
2019-04-14T15:09:37.303Z,6.60
2019-04-14T15:12:06.929Z,6.50
2019-04-14T15:14:36.518Z,6.40
2019-04-14T15:17:08.341Z,6.50
2019-04-14T15:19:37.501Z,6.40
2019-04-14T15:22:07.214Z,6.40
2019-04-14T15:24:36.865Z,6.50
2019-04-14T15:27:06.477Z,6.40
2019-04-14T15:29:36.259Z,6.50
2019-04-14T15:32:06.074Z,6.60
2019-04-14T15:34:35.842Z,6.40
2019-04-14T15:37:05.800Z,6.60
2019-04-14T15:39:37.632Z,6.60
2019-04-14T15:42:06.821Z,6.60
2019-04-14T15:44:36.521Z,6.70
2019-04-14T15:47:06.269Z,6.70
2019-04-14T15:49:36.012Z,6.70
2019-04-14T15:52:05.835Z,6.70
2019-04-14T15:54:35.704Z,6.80
2019-04-14T15:57:30.353Z,6.90
2019-04-14T16:00:17.775Z,6.70
2019-04-14T16:03:16.058Z,6.70
2019-04-14T16:06:08.917Z,6.70
2019-04-14T16:08:48.688Z,6.80
2019-04-14T16:11:26.460Z,6.70
2019-04-14T16:14:21.381Z,6.80
2019-04-14T16:17:18.828Z,6.80
2019-04-14T16:19:53.305Z,6.90
2019-04-14T16:22:23.165Z,6.90
2019-04-14T16:24:53.027Z,6.90
2019-04-14T16:27:40.665Z,6.90
2019-04-14T16:30:32.363Z,7.00
2019-04-14T16:33:19.123Z,7.00
2019-04-14T16:35:48.994Z,7.00
2019-04-14T16:38:18.834Z,6.90
2019-04-14T16:40:48.719Z,7.00
2019-04-14T16:43:18.870Z,7.10
2019-04-14T16:45:48.737Z,7.10
2019-04-14T16:48:18.661Z,7.10
2019-04-14T16:50:48.539Z,7.10
2019-04-14T16:53:30.098Z,7.20
2019-04-14T16:56:18.951Z,7.10
2019-04-14T16:58:54.403Z,7.20
2019-04-14T17:01:32.113Z,7.10
2019-04-14T17:04:01.987Z,7.10
2019-04-14T17:06:31.902Z,7.20
2019-04-14T17:09:01.744Z,7.20
2019-04-14T17:11:31.642Z,7.00
2019-04-14T17:14:07.391Z,7.00
2019-04-14T17:16:56.243Z,7.10
2019-04-14T17:19:35.721Z,7.00
2019-04-14T17:22:30.818Z,7.00
2019-04-14T17:25:34.967Z,7.00
2019-04-14T17:28:24.395Z,7.10
2019-04-14T17:31:02.562Z,7.10
2019-04-14T17:33:46.960Z,7.20
2019-04-14T17:36:53.804Z,7.30
2019-04-14T17:39:31.892Z,7.10
2019-04-14T17:42:10.571Z,7.20
2019-04-14T17:45:02.402Z,7.20
2019-04-14T17:47:56.893Z,7.20
2019-04-14T17:50:45.654Z,7.30
2019-04-14T17:53:21.774Z,7.30
2019-04-14T17:56:22.620Z,7.30
2019-04-14T17:59:14.295Z,7.30
2019-04-14T18:02:01.985Z,7.20
2019-04-14T18:04:55.380Z,7.20
2019-04-14T18:07:34.566Z,7.20
2019-04-14T18:10:22.550Z,7.20
2019-04-14T18:13:11.318Z,7.20
2019-04-14T18:15:48.128Z,7.20
2019-04-14T18:18:39.978Z,7.20
2019-04-14T18:21:10.750Z,7.20
2019-04-14T18:23:40.645Z,7.20
2019-04-14T18:26:10.489Z,7.20
2019-04-14T18:29:02.138Z,7.20
2019-04-14T18:32:06.072Z,7.20
2019-04-14T18:34:52.138Z,7.20
2019-04-14T18:37:40.051Z,7.20
2019-04-14T18:40:16.999Z,7.10
2019-04-14T18:43:12.073Z,7.10
2019-04-14T18:45:49.980Z,7.20
2019-04-14T18:48:53.881Z,7.20
2019-04-14T18:51:42.773Z,7.10
2019-04-14T18:54:22.947Z,7.10
2019-04-14T18:57:21.569Z,7.10
2019-04-14T19:00:13.691Z,7.10
2019-04-14T19:02:43.680Z,7.10
2019-04-14T19:05:13.632Z,7.10
2019-04-14T19:07:43.511Z,7.10
2019-04-14T19:10:13.795Z,7.10
2019-04-14T19:13:05.708Z,7.10
2019-04-14T19:15:44.980Z,7.10
2019-04-14T19:18:25.792Z,7.10
2019-04-14T19:21:05.061Z,7.10
2019-04-14T19:23:35.053Z,7.10
2019-04-14T19:26:04.904Z,7.00
2019-04-14T19:28:34.758Z,7.00
2019-04-14T19:31:04.737Z,7.00
2019-04-14T19:33:34.634Z,6.90
2019-04-14T19:36:04.519Z,7.00
2019-04-14T19:38:34.348Z,6.90
2019-04-14T19:41:04.244Z,6.90
2019-04-14T19:43:34.090Z,6.90
2019-04-14T19:46:04.149Z,6.90
2019-04-14T19:48:33.969Z,6.80
2019-04-14T19:51:03.929Z,6.80
2019-04-14T19:53:33.770Z,6.80
2019-04-14T19:56:03.667Z,6.70
2019-04-14T19:58:33.579Z,6.70
2019-04-14T20:01:03.795Z,6.70
2019-04-14T20:03:33.595Z,6.60
2019-04-14T20:06:03.468Z,6.60
2019-04-14T20:08:34.559Z,6.60
2019-04-14T20:11:04.443Z,6.60
2019-04-14T20:13:38.964Z,6.60
2019-04-14T20:16:26.685Z,6.50
2019-04-14T20:19:15.533Z,6.50
2019-04-14T20:22:10.297Z,6.50
2019-04-14T20:24:51.174Z,6.40
2019-04-14T20:27:27.137Z,6.40
2019-04-14T20:29:58.696Z,6.30
2019-04-14T20:32:31.242Z,6.30
2019-04-14T20:35:00.938Z,6.30
2019-04-14T20:37:30.691Z,6.30
2019-04-14T20:40:00.580Z,6.30
2019-04-14T20:42:30.236Z,6.40
2019-04-14T20:45:00.029Z,6.40
2019-04-14T20:47:29.667Z,6.40
2019-04-14T20:49:59.422Z,6.40
2019-04-14T20:52:28.996Z,6.40
2019-04-14T20:54:58.585Z,6.30
2019-04-14T20:57:28.265Z,6.30
2019-04-14T20:59:57.938Z,6.30
2019-04-14T21:02:49.514Z,6.20
2019-04-14T21:05:45.901Z,6.20
2019-04-14T21:08:33.003Z,6.10
2019-04-14T21:11:14.369Z,6.10
2019-04-14T21:13:55.330Z,6.10
2019-04-14T21:16:40.042Z,6.00
2019-04-14T21:19:17.135Z,6.10
2019-04-14T21:22:09.954Z,6.00
2019-04-14T21:24:57.255Z,6.10
2019-04-14T21:27:45.755Z,6.10
2019-04-14T21:30:20.837Z,5.90
2019-04-14T21:33:09.305Z,5.80
2019-04-14T21:36:13.143Z,5.80
2019-04-14T21:39:00.293Z,5.90
2019-04-14T21:41:30.601Z,5.80
2019-04-14T21:44:00.089Z,5.90
2019-04-14T21:46:29.618Z,5.90
2019-04-14T21:48:59.088Z,5.80
2019-04-14T21:51:47.577Z,5.90
2019-04-14T21:54:17.919Z,6.00
2019-04-14T21:57:02.008Z,6.10
2019-04-14T21:59:38.210Z,5.90
2019-04-14T22:02:32.339Z,5.80
2019-04-14T22:05:21.801Z,5.60
2019-04-14T22:08:02.521Z,5.70
2019-04-14T22:10:38.783Z,5.70
2019-04-14T22:13:08.596Z,5.60
2019-04-14T22:15:38.093Z,5.60
2019-04-14T22:18:07.666Z,5.60
2019-04-14T22:20:37.257Z,5.60
2019-04-14T22:23:09.639Z,5.70
2019-04-14T22:25:39.172Z,5.60
2019-04-14T22:28:08.741Z,5.50
2019-04-14T22:30:38.256Z,5.40
2019-04-14T22:33:07.930Z,5.40
2019-04-14T22:35:37.390Z,5.50
2019-04-14T22:38:06.921Z,5.50
2019-04-14T22:40:36.389Z,5.40
2019-04-14T22:43:05.997Z,5.40
2019-04-14T22:45:35.604Z,5.30
2019-04-14T22:48:05.441Z,5.20
2019-04-14T22:50:34.967Z,5.20
2019-04-14T22:53:04.578Z,5.30
2019-04-14T22:55:34.359Z,5.50
2019-04-14T22:58:03.849Z,5.40
2019-04-14T23:00:50.370Z,5.20
2019-04-14T23:03:47.957Z,5.20
2019-04-14T23:06:42.214Z,5.00
2019-04-14T23:09:30.640Z,5.00
2019-04-14T23:12:28.105Z,5.10
2019-04-14T23:15:15.263Z,5.10
2019-04-14T23:18:02.625Z,5.20
2019-04-14T23:20:52.576Z,5.20
2019-04-14T23:23:50.107Z,5.20
2019-04-14T23:26:19.741Z,5.10
2019-04-14T23:28:49.333Z,5.20
2019-04-14T23:31:19.290Z,5.20
2019-04-14T23:33:48.757Z,5.30
2019-04-14T23:36:18.279Z,5.10
2019-04-14T23:38:47.800Z,5.00
2019-04-14T23:41:17.313Z,5.00
2019-04-14T23:43:46.875Z,5.10
2019-04-14T23:46:16.369Z,5.10
2019-04-14T23:48:45.854Z,5.20
2019-04-14T23:51:15.444Z,5.20
2019-04-14T23:53:44.947Z,5.00
2019-04-14T23:56:14.490Z,5.00
2019-04-14T23:58:44.102Z,5.00
